Terminal Aerodrome Forecast
Issued by NWS Albany, NY

Home | Current Version | Previous Version | Text Only | Print | Product List | Glossary On
Versions: 1 2 3 4 5 6 7 8 9 10 11 12 13 14 15 16 17 18 19 20
000
FTUS41 KALY 251135
TAFPOU
TAF
KPOU 251135Z 2512/2612 00000KT P6SM SKC
     FM251600 24009G17KT P6SM BKN060
     FM252300 26005KT P6SM SCT060
     FM260600 00000KT P6SM FEW060=

USA.gov is the U.S. government's official web portal to all federal, state and local government web resources and services.